George Bush Intercontinental Houston Airport
KIAH : now visible

Airfield :











YOU CAN JOIN US ON...

 
LOGIN :

Register | Disclaimer

   EN    FR    IT 

 









Legend :    VFR   Marginal VFR   IFR   Intensive IFR   Very Intensive IFR
Visi :
Ceiling :
>= 8 km
>= 3000ft
5 to 8 km
1000 to 3000 ft
1500m to 5 km
500 to 1000 ft
800 to 1500m
200 to 500 ft
< 800m
< 200 ft
Symbols :   Thunderstorms  Fog  Heavy snow  Heavy precipitations  Wind > 20 kt






- Airport Elevation : 97 ft
- IATA code : IAH


KIAH - George Bush Intercontinental Houston

CURRENT METAR :
  • 282153Z 11008KT 10SM FEW012 FEW032 BKN060 BKN150 16/14 A2983 RMK AO2 RAE34 SLP100 P0011 T01610144

EXPIRED METARs :
  • 282114Z 12006KT 3SM RA BR FEW005 SCT023 BKN045 16/14 A2985 RMK AO2 P0008 T01560144
  • 282108Z 13003KT 1 1/2SM +RA BR FEW005 SCT022 OVC045 16/14 A2985 RMK AO2 P0005 T01560139
  • 282053Z 00000KT 3SM -RA BR FEW005 SCT026 OVC045 16/14 A2984 RMK AO2 SLP103 P0027 60033 T01560139 55024
  • 282031Z 14005KT 4SM RA BR SCT008 BKN020 OVC045 16/14 A2984 RMK AO2 CB DSNT NE-E MOV NE P0024 T01560139
  • 282018Z 21006KT 1 1/4SM -RA BR SCT008 BKN015CB OVC035 15/14 A2985 RMK AO2 CB NE-SE MOV NE P0022 T01500139
  • 282011Z 09004KT 1/2SM +RA FG BKN008 OVC015CB 15/14 A2985 RMK AO2 CB N-OHD-S MOV NE P0007 T01500139
  • 281953Z 10006KT 3SM -RA BR BKN008 OVC015CB 16/14 A2983 RMK AO2 SLP100 CB SW-NW MOV NE P0001 T01560139

TAF KIAH
Valid from the 28 at 22:00 until the 30 at 00:00 UTC


282208Z 2822/2924 17009KT P6SM SCT018 BKN060
FM290000 21008KT P6SM BKN020
FM290400 31010KT P6SM BKN035
FM291500 33013G20KT P6SM BKN050



MET'MAP, your aeronautical weather chart ! - Copyright ORBIFLY December 2007 - Disclaimer

ORBIFLY MET'MAP TEAM :

Programming & Development : Alexandra Zaïnal
Concept & original design : Baudouin d'Aumeries
Assistance for programming : Marc-Olivier Méhu
Technical & hardware support : Manuel Goepfert

Contact : metmap@orbifly.com




SOURCES & CREDITS :

   NOAA       Earth
Advisory